Mendon, NY (14506)

4:12 PM EDT on April 18, 2015 (GMT -0400)
Mendon Golf Club | | Change Station
CLOSE
Current Station
Personal Weather Station
Location: Mendon, NY
Elevation: 587 ft
Nearby Weather Stations

Elev 587 ft 42.99 °N, 77.50 °W | Updated 8 seconds ago

Clear
Clear
67.5 °F
Feels Like 67.5 °F
N
2.9
Wind Variable Wind from NW
Gusts 4.9 mph

Today
High -- | Low -- °F
--% Chance of Precip.
Yesterday
High -- | Low -- °F
Precip. -- in
6:23 AM 7:55 PM
New Moon, 0% visible
Pressure 30.04 in
Visibility 10.0 miles
Clouds Few 5000 ft
Dew Point 30 °F
Humidity 24%
Rainfall 0.00 in
Snow Depth Not available.
UV 4.0 out of 12
Pollen 11.30 out of 12
Air Quality Not available.
Flu Activity Widespread
METAR KROC 181954Z 34011G19KT 290V020 10SM FEW050 18/M02 A3003 RMK AO2 SLP173 T01831017

More Conditions Fewer Conditions

Pressure 30.04 in
Visibility 10.0 miles
Clouds Few 5000 ft
Dew Point 30 °F
Humidity 24%
Rainfall 0.00 in
Snow Depth Not available.
UV 4.0 out of 12
Pollen 11.30 out of 12
Air Quality Not available.
Flu Activity Widespread
METAR KROC 181954Z 34011G19KT 290V020 10SM FEW050 18/M02 A3003 RMK AO2 SLP173 T01831017

More Conditions Fewer Conditions

10-Day Weather Forecast

Almanac

Astronomy

Apr. 18, 2015 Rise Set
Actual Time
Civil Twilight
Nautical Twilight
Astronomical Twilight
Moon
Length of Visible Light
Length of Day
Tomorrow will be .
, % of the Moon is Illuminated

Today's Extremes

State Highs State Lows

Community

WunderPhotos

Upload Photos

1,814,513 photos uploaded!

WunderBlogs® & News

Nearby

Air Quality

  Air Quality AQ Index Pollutant
Not available.

Snow Depth

Station Depth Elevation

Earthquake Activity

City Distance Mag. Time & Date
Minimum magnitude displayed is 2.5.

Coastal Water Temperatures

Place Temperature

Stations

Nearby Weather Stations

Station Location Temp. Windchill Dew Point Humidity Wind Precip. Elev Updated Type